Time;durP1;ratioP1;P1;durP2;ratioP2;P2;SDS_P1;SDS_P2;PMS_P1;PMS_P2;Temp;Humidity;BMP_temperature;BMP_pressure;BME280_temperature;BME280_humidity;BME280_pressure;Samples;Min_cycle;Max_cycle;Signal;HPM_P1;HPM_P2
2021/12/06 00:00:50;;;;;;;24.47;14.23;;;;;;;0.02;100.00;99925.85;1607811;88;21041;-72
2021/12/06 00:03:22;;;;;;;28.50;15.80;;;;;;;0.01;100.00;99936.12;1633809;88;21094;-73
2021/12/06 00:05:49;;;;;;;23.90;14.45;;;;;;;0.00;100.00;99927.31;1634158;88;21018;-71
2021/12/06 00:08:16;;;;;;;26.77;15.20;;;;;;;-0.01;100.00;99922.45;1633559;88;21062;-73
2021/12/06 00:10:49;;;;;;;26.43;15.43;;;;;;;-0.03;100.00;99924.37;1633660;88;21069;-72
2021/12/06 00:13:12;;;;;;;26.77;15.73;;;;;;;-0.05;100.00;99920.97;1630192;88;21037;-73
2021/12/06 00:15:39;;;;;;;25.83;15.60;;;;;;;-0.03;100.00;99920.38;1633952;88;21017;-72
2021/12/06 00:18:06;;;;;;;25.23;14.83;;;;;;;-0.02;100.00;99922.09;1633903;88;21050;-73
2021/12/06 00:20:32;;;;;;;26.20;15.33;;;;;;;0.04;100.00;99918.64;1620443;88;21032;-72
2021/12/06 00:22:59;;;;;;;24.50;14.80;;;;;;;0.05;100.00;99923.83;1611480;89;21053;-72
2021/12/06 00:25:26;;;;;;;25.87;14.67;;;;;;;0.05;100.00;99920.33;1611182;89;21137;-72
2021/12/06 00:27:53;;;;;;;26.50;15.13;;;;;;;0.04;100.00;99908.02;1611412;89;21542;-73
2021/12/06 00:30:20;;;;;;;26.67;15.00;;;;;;;0.02;100.00;99909.44;1611387;89;21531;-73
2021/12/06 00:32:47;;;;;;;27.03;15.43;;;;;;;0.01;100.00;99920.18;1617380;87;21105;-73
2021/12/06 00:35:19;;;;;;;25.87;15.30;;;;;;;-0.03;100.00;99912.41;1640738;87;21040;-72
2021/12/06 00:37:54;;;;;;;24.83;14.77;;;;;;;-0.01;100.00;99910.48;1637227;87;21498;-72
2021/12/06 00:40:14;;;;;;;25.73;14.83;;;;;;;0.03;100.00;99908.47;1637001;87;21483;-71
2021/12/06 00:42:41;;;;;;;26.73;14.13;;;;;;;0.03;100.00;99920.92;1640217;87;21124;-73
2021/12/06 00:45:09;;;;;;;24.30;14.50;;;;;;;0.02;100.00;99924.06;1640438;87;21551;-73
2021/12/06 00:47:37;;;;;;;26.47;14.73;;;;;;;0.02;100.00;99920.08;1640533;87;21000;-73
2021/12/06 00:50:05;;;;;;;26.67;15.37;;;;;;;0.02;100.00;99913.89;1640477;87;21005;-73
2021/12/06 00:52:32;;;;;;;26.50;15.60;;;;;;;0.03;100.00;99916.44;1640289;87;21132;-72
2021/12/06 00:54:59;;;;;;;25.13;14.20;;;;;;;0.03;100.00;99917.77;1640586;87;21486;-72
2021/12/06 00:57:26;;;;;;;26.90;15.33;;;;;;;0.03;100.00;99919.10;1640503;87;21012;-73
2021/12/06 00:59:52;;;;;;;24.67;14.53;;;;;;;0.04;100.00;99918.64;1640447;87;21088;-73
2021/12/06 01:02:19;;;;;;;26.57;15.13;;;;;;;0.04;100.00;99913.33;1640614;87;21068;-73
2021/12/06 01:04:47;;;;;;;24.00;13.93;;;;;;;0.03;100.00;99911.61;1638190;87;21048;-72
2021/12/06 01:07:14;;;;;;;25.77;14.80;;;;;;;0.04;100.00;99905.35;1640249;87;21024;-71
2021/12/06 01:09:41;;;;;;;27.90;14.97;;;;;;;0.05;100.00;99906.55;1640520;87;21096;-73
2021/12/06 01:12:08;;;;;;;25.10;14.80;;;;;;;0.05;100.00;99906.55;1640460;87;21049;-72
2021/12/06 01:14:35;;;;;;;26.60;15.13;;;;;;;0.06;100.00;99904.77;1640486;87;21547;-72
2021/12/06 01:17:04;;;;;;;25.97;14.67;;;;;;;0.04;100.00;99904.02;1640755;87;21060;-72
2021/12/06 01:19:32;;;;;;;26.07;14.97;;;;;;;0.03;100.00;99899.16;1636072;87;21036;-74
2021/12/06 01:24:54;;;;;;;24.87;14.60;;;;;;;0.03;100.00;99893.00;1647183;87;21021;-72
2021/12/06 01:40:06;;;;;;;25.97;13.90;;;;;;;0.09;100.00;99889.44;1633304;88;21075;-72
2021/12/06 01:42:33;;;;;;;24.73;14.17;;;;;;;0.11;100.00;99884.02;1633588;88;21035;-73
2021/12/06 01:45:00;;;;;;;24.17;13.47;;;;;;;0.13;100.00;99873.63;1633386;88;21545;-73
2021/12/06 01:47:32;;;;;;;23.57;13.47;;;;;;;0.13;100.00;99877.63;1633228;88;21575;-72
2021/12/06 01:50:16;;;;;;;22.60;12.90;;;;;;;0.12;100.00;99873.25;1633306;88;21058;-73
2021/12/06 01:52:48;;;;;;;25.33;14.23;;;;;;;0.13;100.00;99872.30;1633360;88;21054;-72
2021/12/06 01:55:22;;;;;;;25.30;14.03;;;;;;;0.12;100.00;99873.25;1633260;88;21051;-72
2021/12/06 01:57:49;;;;;;;24.40;14.20;;;;;;;0.12;100.00;99875.07;1633383;88;21035;-73
2021/12/06 02:00:24;;;;;;;22.40;13.53;;;;;;;0.12;100.00;99883.89;1633349;88;21051;-72
2021/12/06 02:02:53;;;;;;;24.07;14.23;;;;;;;0.14;100.00;99883.33;1615170;89;21133;-72
2021/12/06 02:05:21;;;;;;;25.20;14.43;;;;;;;0.14;100.00;99879.34;1615095;89;21037;-73
2021/12/06 02:07:48;;;;;;;24.53;13.53;;;;;;;0.12;100.00;99878.57;1615261;89;21065;-73
2021/12/06 02:10:15;;;;;;;23.20;13.30;;;;;;;0.13;100.00;99883.43;1615094;89;21097;-73
2021/12/06 02:12:45;;;;;;;22.27;12.80;;;;;;;0.14;100.00;99885.98;1614836;88;21088;-72
2021/12/06 02:18:07;;;;;;;23.98;13.53;;;;;;;0.15;100.00;99885.01;1614618;89;21061;-73
2021/12/06 02:20:27;;;;;;;24.43;14.03;;;;;;;0.13;100.00;99886.09;1621802;87;21017;-73
2021/12/06 02:22:53;;;;;;;22.90;13.63;;;;;;;0.08;100.00;99885.07;1639826;87;21120;-73
2021/12/06 02:25:20;;;;;;;24.03;13.57;;;;;;;0.07;100.00;99894.02;1639714;87;21041;-73
2021/12/06 02:27:50;;;;;;;26.67;13.90;;;;;;;0.07;100.00;99891.36;1639553;87;21614;-72
2021/12/06 02:30:19;;;;;;;24.37;13.70;;;;;;;0.10;100.00;99899.59;1639842;87;21049;-73
2021/12/06 02:32:47;;;;;;;22.33;12.50;;;;;;;0.10;100.00;99904.91;1644454;86;21047;-72
2021/12/06 02:35:16;;;;;;;23.23;13.07;;;;;;;0.10;100.00;99899.59;1674894;86;21045;-71
2021/12/06 02:37:43;;;;;;;24.20;13.43;;;;;;;0.09;100.00;99897.88;1674750;86;21066;-73
2021/12/06 02:40:15;;;;;;;21.90;12.93;;;;;;;0.09;100.00;99902.73;1682878;85;21082;-73
2021/12/06 02:42:45;;;;;;;23.83;13.43;;;;;;;0.09;100.00;99899.20;1671540;86;21069;-72
2021/12/06 02:45:12;;;;;;;22.90;13.27;;;;;;;0.09;100.00;99899.20;1671383;86;21557;-73
2021/12/06 02:47:40;;;;;;;24.13;13.50;;;;;;;0.10;100.00;99897.77;1671179;86;21072;-74
2021/12/06 02:50:09;;;;;;;24.07;13.60;;;;;;;0.12;100.00;99898.51;1671112;86;21124;-73
2021/12/06 02:52:36;;;;;;;23.13;14.00;;;;;;;0.13;100.00;99897.56;1671364;86;21049;-74
2021/12/06 02:55:12;;;;;;;24.40;14.27;;;;;;;0.13;100.00;99898.05;1671200;86;21056;-73
2021/12/06 02:57:37;;;;;;;26.10;15.47;;;;;;;0.09;100.00;99896.09;1667454;86;21038;-73
2021/12/06 03:00:08;;;;;;;26.37;14.83;;;;;;;0.06;100.00;99892.31;1671100;86;21080;-73
2021/12/06 03:02:36;;;;;;;22.48;13.78;;;;;;;0.04;100.00;99895.56;1637119;87;21067;-73
2021/12/06 03:05:05;;;;;;;24.97;14.07;;;;;;;-0.02;100.00;99899.50;1637300;88;21091;-73
2021/12/06 03:07:36;;;;;;;23.53;13.80;;;;;;;-0.04;100.00;99901.39;1637379;88;21557;-72
2021/12/06 03:10:05;;;;;;;23.77;13.47;;;;;;;-0.04;100.00;99912.02;1637608;88;21592;-73
2021/12/06 03:12:32;;;;;;;22.93;13.23;;;;;;;-0.05;100.00;99919.64;1637431;88;21150;-74
2021/12/06 03:15:00;;;;;;;23.67;13.70;;;;;;;-0.03;100.00;99913.73;1637410;88;21027;-74
2021/12/06 03:17:30;;;;;;;25.57;15.30;;;;;;;-0.03;100.00;99920.88;1637554;88;21066;-71
2021/12/06 03:19:57;;;;;;;28.10;16.90;;;;;;;-0.04;100.00;99917.34;1630493;88;21017;-73
2021/12/06 03:22:25;;;;;;;46.10;29.73;;;;;;;-0.04;100.00;99929.30;1617330;89;21145;-72
2021/12/06 03:24:54;;;;;;;51.57;30.33;;;;;;;-0.03;100.00;99929.69;1617342;89;21638;-72
2021/12/06 03:27:21;;;;;;;130.70;72.23;;;;;;;-0.03;100.00;99923.04;1617512;89;21536;-73
2021/12/06 03:29:50;;;;;;;96.13;55.43;;;;;;;-0.03;100.00;99916.40;1617562;87;21122;-73
2021/12/06 03:32:19;;;;;;;90.97;55.23;;;;;;;0.00;100.00;99912.69;1617348;89;21602;-73
2021/12/06 03:34:46;;;;;;;68.47;44.87;;;;;;;-0.01;100.00;99918.47;1636990;88;21091;-72
2021/12/06 03:37:13;;;;;;;50.90;32.77;;;;;;;0.01;100.00;99917.52;1637549;88;21090;-72
2021/12/06 03:39:44;;;;;;;37.63;24.50;;;;;;;0.01;100.00;99924.16;1629686;88;21050;-73
2021/12/06 03:42:14;;;;;;;34.23;22.07;;;;;;;-0.01;100.00;99917.13;1624583;88;21114;-73
2021/12/06 03:44:41;;;;;;;33.87;23.40;;;;;;;-0.02;100.00;99910.59;1624493;88;21124;-72
2021/12/06 03:47:28;;;;;;;30.47;18.80;;;;;;;-0.02;100.00;99919.89;1624743;88;21002;-72
2021/12/06 03:49:55;;;;;;;27.17;18.13;;;;;;;0.00;100.00;99919.34;1624564;88;21045;-72
2021/12/06 03:52:23;;;;;;;27.20;16.63;;;;;;;0.01;100.00;99914.38;1624571;88;21153;-73
2021/12/06 03:54:50;;;;;;;26.23;16.80;;;;;;;0.01;100.00;99910.88;1624726;88;21126;-73
2021/12/06 03:57:18;;;;;;;25.57;14.63;;;;;;;-0.01;100.00;99903.84;1624702;88;21014;-72
2021/12/06 03:59:45;;;;;;;26.50;15.13;;;;;;;-0.03;100.00;99898.27;1624616;88;21054;-73
2021/12/06 04:02:12;;;;;;;24.63;14.80;;;;;;;-0.06;100.00;99896.66;1613064;88;21065;-72
2021/12/06 04:04:40;;;;;;;23.97;14.60;;;;;;;-0.06;100.00;99903.31;1608211;86;21121;-74
2021/12/06 04:07:09;;;;;;;24.03;13.27;;;;;;;-0.07;100.00;99902.95;1672636;86;21080;-73
2021/12/06 04:09:36;;;;;;;24.33;13.97;;;;;;;-0.07;100.00;99892.33;1673046;86;21034;-72
2021/12/06 04:12:06;;;;;;;23.77;14.20;;;;;;;-0.07;100.00;99908.73;1672665;86;21479;-73
2021/12/06 04:14:35;;;;;;;23.60;14.67;;;;;;;-0.06;100.00;99918.42;1672890;85;21021;-73
2021/12/06 04:17:02;;;;;;;28.13;17.27;;;;;;;-0.04;100.00;99918.67;1672987;85;21108;-73
2021/12/06 04:19:30;;;;;;;25.00;15.77;;;;;;;-0.03;100.00;99915.06;1670151;86;21030;-71
2021/12/06 04:21:57;;;;;;;29.10;16.27;;;;;;;-0.04;100.00;99916.01;1658271;86;21100;-73
2021/12/06 04:24:23;;;;;;;26.33;14.97;;;;;;;-0.05;100.00;99914.81;1658303;86;21026;-72
2021/12/06 04:26:50;;;;;;;25.03;14.33;;;;;;;-0.06;100.00;99918.42;1658474;86;21026;-73
2021/12/06 04:29:17;;;;;;;24.00;13.77;;;;;;;-0.06;100.00;99905.12;1658396;86;21066;-73
2021/12/06 04:31:49;;;;;;;22.47;13.17;;;;;;;-0.07;100.00;99888.34;1658397;86;21002;-73
2021/12/06 04:34:16;;;;;;;23.80;13.67;;;;;;;-0.09;100.00;99876.97;1685031;85;21110;-73
2021/12/06 04:36:43;;;;;;;23.03;13.70;;;;;;;-0.11;100.00;99880.67;1694228;85;21033;-72
2021/12/06 04:39:13;;;;;;;23.93;13.97;;;;;;;-0.13;100.00;99893.22;1694304;85;21471;-73
2021/12/06 04:41:40;;;;;;;22.80;13.03;;;;;;;-0.14;100.00;99894.16;1694155;85;21519;-72
2021/12/06 04:44:07;;;;;;;22.60;12.93;;;;;;;-0.16;100.00;99892.09;1694383;85;21001;-73
2021/12/06 04:46:33;;;;;;;22.97;13.00;;;;;;;-0.19;100.00;99887.86;1694354;85;21017;-72
2021/12/06 04:49:00;;;;;;;26.80;15.13;;;;;;;-0.21;100.00;99883.13;1694194;85;21072;-72
2021/12/06 04:51:27;;;;;;;25.83;14.30;;;;;;;-0.24;100.00;99882.84;1693992;85;21093;-72
2021/12/06 04:53:55;;;;;;;28.37;16.10;;;;;;;-0.26;100.00;99887.42;1694222;85;21018;-72
2021/12/06 04:56:27;;;;;;;25.13;14.63;;;;;;;-0.29;100.00;99884.13;1694053;85;21563;-73
2021/12/06 04:59:16;;;;;;;23.50;13.25;;;;;;;-0.32;100.00;99886.53;1694643;85;20986;-72
2021/12/06 05:01:44;;;;;;;24.23;12.90;;;;;;;-0.33;100.00;99892.79;1694291;85;21045;-72
2021/12/06 05:04:16;;;;;;;25.53;14.17;;;;;;;-0.35;100.00;99893.38;1694273;85;21013;-72
2021/12/06 05:06:45;;;;;;;23.47;14.13;;;;;;;-0.38;100.00;99898.89;1663518;86;21100;-73
2021/12/06 05:09:17;;;;;;;23.10;13.57;;;;;;;-0.38;100.00;99896.23;1663556;86;21017;-72
2021/12/06 05:11:45;;;;;;;23.65;13.80;;;;;;;-0.39;100.00;99904.69;1601270;90;21134;-73
2021/12/06 05:14:12;;;;;;;23.57;13.17;;;;;;;-0.40;100.00;99910.10;1601290;90;21564;-73
2021/12/06 05:16:40;;;;;;;23.63;13.53;;;;;;;-0.41;100.00;99913.70;1600866;90;21077;-72
2021/12/06 05:19:07;;;;;;;22.47;12.77;;;;;;;-0.41;100.00;99921.67;1601176;90;21018;-72
2021/12/06 05:21:35;;;;;;;22.43;13.10;;;;;;;-0.42;100.00;99924.81;1586846;90;21058;-72
2021/12/06 05:24:03;;;;;;;21.87;13.17;;;;;;;-0.41;100.00;99923.88;1586743;90;21037;-73
2021/12/06 05:26:30;;;;;;;23.23;14.17;;;;;;;-0.40;100.00;99933.53;1586494;90;21074;-73
2021/12/06 05:29:00;;;;;;;26.03;15.40;;;;;;;-0.39;100.00;99937.03;1586786;90;21070;-73
2021/12/06 05:31:27;;;;;;;23.33;13.43;;;;;;;-0.37;100.00;99939.58;1586495;90;21081;-73
2021/12/06 05:34:01;;;;;;;22.97;14.23;;;;;;;-0.35;100.00;99948.30;1586071;90;21073;-71
2021/12/06 05:36:24;;;;;;;24.63;13.90;;;;;;;-0.34;100.00;99949.52;1587648;90;21122;-72
2021/12/06 05:38:52;;;;;;;25.97;14.97;;;;;;;-0.30;100.00;99950.17;1587687;90;21053;-73
2021/12/06 05:41:21;;;;;;;27.67;16.40;;;;;;;-0.28;100.00;99949.13;1587777;90;21137;-73
2021/12/06 05:43:47;;;;;;;27.10;16.80;;;;;;;-0.27;100.00;99953.95;1587993;90;21550;-72
2021/12/06 05:46:14;;;;;;;26.07;16.57;;;;;;;-0.27;100.00;99948.64;1587929;90;21539;-70
2021/12/06 05:48:41;;;;;;;23.53;14.33;;;;;;;-0.26;100.00;99946.38;1588007;90;21571;-72
2021/12/06 05:51:08;;;;;;;22.40;13.90;;;;;;;-0.26;100.00;99943.23;1587870;90;21093;-73
2021/12/06 05:53:34;;;;;;;21.47;12.40;;;;;;;-0.25;100.00;99936.09;1587626;90;21077;-72
2021/12/06 05:56:02;;;;;;;20.37;12.07;;;;;;;-0.25;100.00;99936.09;1587654;90;21610;-73
2021/12/06 05:58:31;;;;;;;23.37;13.77;;;;;;;-0.25;100.00;99932.11;1587686;90;21088;-72
2021/12/06 06:00:58;;;;;;;23.77;14.30;;;;;;;-0.25;100.00;99934.31;1587879;90;21133;-71
2021/12/06 06:03:25;;;;;;;21.87;13.57;;;;;;;-0.24;100.00;99941.80;1575228;90;21052;-70
2021/12/06 06:05:52;;;;;;;23.37;13.60;;;;;;;-0.24;100.00;99946.63;1560842;92;21535;-72
2021/12/06 06:08:19;;;;;;;21.97;12.47;;;;;;;-0.22;100.00;99947.86;1594567;88;21065;-72
2021/12/06 06:10:47;;;;;;;23.57;13.80;;;;;;;-0.21;100.00;99943.77;1636053;88;21069;-70
2021/12/06 06:13:14;;;;;;;23.73;13.87;;;;;;;-0.18;100.00;99934.72;1646916;86;20985;-73
2021/12/06 06:15:41;;;;;;;23.00;13.37;;;;;;;-0.14;100.00;99939.34;1662316;86;21043;-71
2021/12/06 06:18:08;;;;;;;22.93;13.20;;;;;;;-0.12;100.00;99928.16;1661257;86;21001;-71
2021/12/06 06:20:51;;;;;;;25.53;15.37;;;;;;;-0.10;100.00;99934.22;1659994;86;21519;-73
2021/12/06 06:23:18;;;;;;;27.90;16.15;;;;;;;-0.07;100.00;99948.14;1661538;86;20993;-72
2021/12/06 06:25:46;;;;;;;27.10;16.27;;;;;;;-0.04;100.00;99957.70;1666072;86;21029;-73
2021/12/06 06:28:13;;;;;;;27.97;16.93;;;;;;;-0.01;100.00;99964.14;1662486;86;21484;-72
2021/12/06 06:30:40;;;;;;;26.00;15.63;;;;;;;0.02;100.00;99973.70;1661579;86;21021;-73
2021/12/06 06:33:07;;;;;;;24.47;14.27;;;;;;;0.04;100.00;99970.00;1660714;85;21049;-71
2021/12/06 06:35:34;;;;;;;22.97;13.40;;;;;;;0.09;100.00;99974.52;1624938;87;21017;-72
2021/12/06 06:38:01;;;;;;;22.20;13.13;;;;;;;0.13;100.00;99981.81;1625183;88;21008;-73
2021/12/06 06:40:28;;;;;;;22.47;13.67;;;;;;;0.19;100.00;99982.70;1624817;88;21077;-72
2021/12/06 06:42:54;;;;;;;24.50;14.10;;;;;;;0.23;100.00;99977.56;1624544;88;21553;-72
2021/12/06 06:45:21;;;;;;;25.57;15.33;;;;;;;0.27;100.00;99977.71;1625383;88;21016;-71
2021/12/06 06:47:49;;;;;;;28.03;16.93;;;;;;;0.29;100.00;99976.28;1625282;88;21061;-72
2021/12/06 06:50:16;;;;;;;25.90;15.17;;;;;;;0.31;100.00;99970.37;1625158;88;21496;-72
2021/12/06 06:52:43;;;;;;;25.70;13.93;;;;;;;0.32;100.00;99975.59;1625089;88;21037;-72
2021/12/06 06:55:10;;;;;;;21.67;12.83;;;;;;;0.35;100.00;99982.48;1625752;88;21014;-73
2021/12/06 06:57:38;;;;;;;25.63;14.67;;;;;;;0.40;100.00;99975.04;1625070;88;21016;-72
2021/12/06 07:00:09;;;;;;;23.80;13.97;;;;;;;0.43;100.00;99985.47;1625367;88;21518;-71
2021/12/06 07:02:35;;;;;;;23.73;11.97;;;;;;;0.47;100.00;99986.11;1626448;88;21084;-72
2021/12/06 07:05:02;;;;;;;22.70;12.40;;;;;;;0.51;100.00;99988.92;1624994;88;21044;-71
2021/12/06 07:07:29;;;;;;;25.27;13.80;;;;;;;0.54;100.00;99986.05;1625333;88;21091;-73
2021/12/06 07:09:56;;;;;;;25.27;13.73;;;;;;;0.59;100.00;99995.89;1625544;88;21004;-72
2021/12/06 07:12:23;;;;;;;22.07;12.57;;;;;;;0.63;100.00;99985.87;1624945;88;21048;-70
2021/12/06 07:14:49;;;;;;;22.03;11.53;;;;;;;0.68;100.00;99986.41;1624860;88;21521;-71
2021/12/06 07:17:16;;;;;;;22.23;12.37;;;;;;;0.71;100.00;99991.03;1625093;88;21061;-71
2021/12/06 07:19:44;;;;;;;20.77;11.63;;;;;;;0.76;100.00;99985.36;1623431;88;21507;-69
2021/12/06 07:22:11;;;;;;;21.00;12.07;;;;;;;0.80;100.00;99986.86;1625078;88;21033;-69
2021/12/06 07:24:38;;;;;;;22.90;12.20;;;;;;;0.82;100.00;99980.10;1624787;88;20990;-72
2021/12/06 07:27:05;;;;;;;21.80;11.17;;;;;;;0.83;100.00;99985.29;1624830;88;21016;-72
2021/12/06 07:29:33;;;;;;;19.90;10.97;;;;;;;0.83;100.00;99989.28;1625184;88;21057;-72
2021/12/06 07:32:01;;;;;;;20.97;12.20;;;;;;;0.84;100.00;99987.00;1625246;88;21027;-71
2021/12/06 07:34:28;;;;;;;25.00;12.03;;;;;;;0.86;100.00;99992.22;1637532;86;21056;-71
2021/12/06 07:36:55;;;;;;;28.57;13.73;;;;;;;0.89;100.00;100000.84;1657434;86;21008;-72
2021/12/06 07:39:22;;;;;;;23.67;13.50;;;;;;;0.93;100.00;99995.66;1657617;86;21455;-71
2021/12/06 07:41:48;;;;;;;27.73;15.27;;;;;;;0.94;100.00;99990.71;1657673;86;21523;-70
2021/12/06 07:44:15;;;;;;;34.17;16.10;;;;;;;0.93;100.00;99983.67;1657608;86;20992;-72
2021/12/06 07:46:43;;;;;;;31.77;17.57;;;;;;;0.96;100.00;99982.61;1657869;86;21100;-72
2021/12/06 07:49:11;;;;;;;25.40;14.23;;;;;;;0.99;100.00;99977.05;1658034;86;21019;-70
2021/12/06 07:51:38;;;;;;;25.80;14.97;;;;;;;1.04;100.00;99984.71;1658334;86;20969;-71
2021/12/06 07:54:04;;;;;;;35.80;17.13;;;;;;;1.09;100.00;99980.75;1658554;86;21096;-71
2021/12/06 07:56:31;;;;;;;28.97;15.00;;;;;;;1.20;100.00;99985.28;1658587;86;21596;-72
2021/12/06 07:58:58;;;;;;;29.27;17.47;;;;;;;1.28;100.00;99979.41;1657799;86;21471;-70
2021/12/06 08:01:25;;;;;;;38.67;19.53;;;;;;;1.38;100.00;99981.77;1658420;86;21016;-71
2021/12/06 08:03:52;;;;;;;29.97;16.30;;;;;;;1.45;100.00;99980.35;1659240;84;21030;-69
2021/12/06 08:06:19;;;;;;;28.77;15.27;;;;;;;1.53;100.00;99973.60;1658301;86;21095;-70
2021/12/06 08:08:46;;;;;;;28.53;15.73;;;;;;;1.56;100.00;99968.89;1657999;85;20992;-68
2021/12/06 08:11:16;;;;;;;35.13;18.47;;;;;;;1.60;100.00;99966.35;1659193;85;21048;-71
2021/12/06 08:13:46;;;;;;;26.97;15.77;;;;;;;1.63;100.00;99966.12;1658669;85;21068;-70
2021/12/06 08:16:19;;;;;;;31.53;17.90;;;;;;;1.67;100.00;99958.75;1661136;85;21027;-72
2021/12/06 08:18:47;;;;;;;40.67;21.03;;;;;;;1.66;100.00;99958.38;1664133;85;21071;-71
2021/12/06 08:21:15;;;;;;;41.30;23.63;;;;;;;1.69;100.00;99956.32;1657733;86;21106;-71
2021/12/06 08:23:42;;;;;;;33.13;19.20;;;;;;;1.72;100.00;99941.92;1658317;85;21021;-70
2021/12/06 08:26:10;;;;;;;31.67;17.97;;;;;;;1.73;100.00;99944.09;1660424;85;21044;-70
2021/12/06 08:28:37;;;;;;;30.63;18.47;;;;;;;1.73;100.00;99939.61;1659352;86;20963;-71
2021/12/06 08:31:05;;;;;;;28.33;17.03;;;;;;;1.76;100.00;99932.72;1661481;85;21061;-70
2021/12/06 08:33:32;;;;;;;103.97;69.07;;;;;;;1.79;100.00;99943.62;1660105;84;21632;-71
2021/12/06 08:36:00;;;;;;;39.57;21.50;;;;;;;1.80;100.00;99946.66;1658970;84;20982;-72
2021/12/06 08:38:28;;;;;;;34.00;19.03;;;;;;;1.82;100.00;99945.56;1655484;86;20990;-71
2021/12/06 08:40:56;;;;;;;36.07;20.07;;;;;;;1.86;100.00;99937.72;1657952;86;21010;-71
2021/12/06 08:43:24;;;;;;;29.70;16.50;;;;;;;1.92;100.00;99935.55;1657662;86;21042;-71
2021/12/06 08:45:55;;;;;;;33.40;20.27;;;;;;;1.93;100.00;99936.77;1659147;86;21013;-71
2021/12/06 08:48:24;;;;;;;34.23;20.13;;;;;;;1.96;100.00;99933.84;1632140;86;21470;-74
2021/12/06 08:50:54;;;;;;;39.13;23.80;;;;;;;2.02;100.00;99934.72;1628842;86;21046;-71
2021/12/06 08:53:21;;;;;;;31.43;19.33;;;;;;;2.11;100.00;99936.28;1633029;86;21089;-69
2021/12/06 08:55:49;;;;;;;28.97;16.27;;;;;;;2.17;100.00;99945.16;1615167;88;21061;-71
2021/12/06 08:58:16;;;;;;;27.50;16.80;;;;;;;2.20;100.00;99951.60;1633786;86;21014;-73
2021/12/06 09:00:43;;;;;;;30.70;19.57;;;;;;;2.24;100.00;99948.55;1633536;86;21085;-72
2021/12/06 09:03:11;;;;;;;35.57;22.10;;;;;;;2.32;100.00;99934.63;1640185;86;21551;-73
2021/12/06 09:05:42;;;;;;;32.80;18.87;;;;;;;2.40;100.00;99926.85;1636588;86;21070;-73
2021/12/06 09:08:11;;;;;;;33.80;17.57;;;;;;;2.48;100.00;99924.92;1637278;86;21014;-75
2021/12/06 09:10:38;;;;;;;33.07;18.87;;;;;;;2.57;100.00;99923.34;1634508;88;21579;-75
2021/12/06 09:13:05;;;;;;;30.17;17.50;;;;;;;2.62;100.00;99915.80;1623322;86;21614;-74
2021/12/06 09:15:32;;;;;;;35.00;21.87;;;;;;;2.66;100.00;99923.45;1653485;86;21125;-72
2021/12/06 09:17:59;;;;;;;31.97;20.03;;;;;;;2.70;100.00;99925.37;1645924;86;21065;-72
2021/12/06 09:20:32;;;;;;;32.23;20.33;;;;;;;2.79;100.00;99922.45;1639422;86;21492;-71
2021/12/06 09:22:59;;;;;;;33.37;19.57;;;;;;;2.87;100.00;99924.50;1643809;86;21116;-73
2021/12/06 09:25:26;;;;;;;31.77;17.77;;;;;;;2.91;100.00;99925.47;1638289;88;21104;-73
2021/12/06 09:27:53;;;;;;;30.13;18.43;;;;;;;2.94;100.00;99935.91;1637815;88;21483;-73
2021/12/06 09:30:26;;;;;;;52.93;32.20;;;;;;;2.98;100.00;99926.66;1632266;88;21719;-74
2021/12/06 09:32:55;;;;;;;;;;;;;;;3.03;100.00;99920.96;1637581;87;21049;-72
2021/12/06 09:35:26;;;;;;;28.77;17.20;;;;;;;3.04;100.00;99922.14;1635566;87;20167;-73
2021/12/06 09:37:52;;;;;;;31.17;19.23;;;;;;;3.06;100.00;99931.38;1641797;87;21641;-74
2021/12/06 09:40:19;;;;;;;26.70;15.73;;;;;;;2.97;100.00;99938.31;1642924;87;21523;-72
2021/12/06 09:42:46;;;;;;;29.33;17.73;;;;;;;2.91;100.00;99936.16;1643070;87;21053;-73
2021/12/06 09:45:17;;;;;;;34.87;20.10;;;;;;;2.82;100.00;99940.91;1655845;86;21021;-72
2021/12/06 09:47:50;;;;;;;30.60;18.97;;;;;;;2.77;100.00;99935.92;1663946;86;21502;-72
2021/12/06 09:50:13;;;;;;;26.47;16.70;;;;;;;2.80;100.00;99948.20;1663303;86;21032;-70
2021/12/06 09:52:41;;;;;;;32.17;19.57;;;;;;;2.79;100.00;99934.47;1660868;86;21056;-72
2021/12/06 09:55:09;;;;;;;35.17;21.77;;;;;;;2.82;100.00;99935.07;1659169;86;21484;-75
2021/12/06 09:57:36;;;;;;;42.63;22.50;;;;;;;2.90;100.00;99930.44;1657003;87;21076;-73
2021/12/06 10:00:06;;;;;;;34.10;19.60;;;;;;;3.00;100.00;99931.89;1656901;87;21143;-72
2021/12/06 10:02:33;;;;;;;33.17;18.63;;;;;;;3.05;100.00;99932.36;1656721;87;21048;-73
2021/12/06 10:05:00;;;;;;;36.67;18.17;;;;;;;3.04;100.00;99927.98;1661562;86;20977;-70
2021/12/06 10:07:27;;;;;;;37.10;16.10;;;;;;;2.99;100.00;99929.71;1664669;86;21017;-73
2021/12/06 10:09:54;;;;;;;30.47;14.70;;;;;;;2.96;100.00;99922.44;1660426;86;21100;-71
2021/12/06 10:12:22;;;;;;;34.57;17.03;;;;;;;2.96;100.00;99919.27;1669333;86;21543;-72
2021/12/06 10:14:49;;;;;;;33.50;18.20;;;;;;;2.97;100.00;99915.61;1669995;86;21097;-71
2021/12/06 10:17:16;;;;;;;36.57;18.33;;;;;;;2.98;100.00;99914.64;1669874;86;21029;-72
2021/12/06 10:19:44;;;;;;;36.40;19.37;;;;;;;3.00;100.00;99915.36;1666661;86;20997;-72
2021/12/06 10:22:12;;;;;;;32.00;16.77;;;;;;;3.00;100.00;99906.02;1659014;86;21028;-71
2021/12/06 10:24:41;;;;;;;34.23;18.83;;;;;;;3.05;100.00;99898.97;1657969;86;21025;-72
2021/12/06 10:27:13;;;;;;;42.57;25.87;;;;;;;3.23;100.00;99892.59;1637013;88;21001;-75
2021/12/06 10:29:52;;;;;;;53.43;33.10;;;;;;;3.50;100.00;99908.63;1632680;88;21534;-71
2021/12/06 10:32:29;;;;;;;31.60;19.60;;;;;;;3.68;100.00;99903.05;1605581;89;21062;-71
2021/12/06 10:35:03;;;;;;;35.33;19.67;;;;;;;3.82;100.00;99905.05;1497113;94;21219;-70
2021/12/06 10:37:47;;;;;;;28.17;14.43;;;;;;;3.83;100.00;99902.75;1496593;94;21145;-72
2021/12/06 10:40:21;;;;;;;27.80;13.58;;;;;;;3.82;100.00;99901.87;1533794;93;21130;-71
2021/12/06 10:42:50;;;;;;;47.33;19.27;;;;;;;3.83;100.00;99902.75;1520879;93;21642;-71
2021/12/06 10:45:42;;;;;;;49.00;23.40;;;;;;;3.82;100.00;99899.20;1495717;95;21626;-71
2021/12/06 10:48:29;;;;;;;45.27;26.90;;;;;;;3.86;100.00;99902.47;1491528;96;21139;-71
2021/12/06 10:51:00;;;;;;;45.40;28.47;;;;;;;3.88;100.00;99895.16;1503070;94;21611;-73
2021/12/06 10:53:34;;;;;;;30.40;17.10;;;;;;;3.89;100.00;99897.70;1497974;94;21102;-73
2021/12/06 10:55:59;;;;;;;27.73;16.70;;;;;;;3.92;100.00;99893.93;1479935;96;21635;-71
2021/12/06 10:58:28;;;;;;;39.20;24.10;;;;;;;3.87;100.00;99901.00;1482701;96;21165;-73
2021/12/06 11:01:12;;;;;;;28.87;16.97;;;;;;;3.78;100.00;99902.63;1480643;96;21072;-74
2021/12/06 11:03:45;;;;;;;29.77;18.63;;;;;;;3.68;100.00;99893.69;1445346;98;21148;-72
2021/12/06 11:06:19;;;;;;;29.33;18.13;;;;;;;3.58;100.00;99886.95;1449866;98;21641;-69
2021/12/06 11:08:48;;;;;;;43.33;21.10;;;;;;;3.55;100.00;99887.70;1449251;98;21615;-75
2021/12/06 11:11:28;;;;;;;37.83;17.90;;;;;;;3.54;100.00;99890.00;1434637;99;21280;-72
2021/12/06 11:14:08;;;;;;;27.97;15.57;;;;;;;3.56;100.00;99893.39;1465785;97;21094;-73
2021/12/06 11:16:39;;;;;;;30.30;17.60;;;;;;;3.56;100.00;99897.40;1463417;97;21282;-70
2021/12/06 11:19:08;;;;;;;33.07;16.97;;;;;;;3.56;100.00;99892.05;1489211;96;21624;-71
2021/12/06 11:21:42;;;;;;;26.07;14.30;;;;;;;3.56;100.00;99893.39;1490364;96;21031;-71
2021/12/06 11:24:29;;;;;;;26.13;12.80;;;;;;;3.55;100.00;99895.72;1491292;95;21065;-73
2021/12/06 11:27:08;;;;;;;23.33;10.80;;;;;;;3.56;100.00;99903.63;1499849;95;21094;-74
2021/12/06 11:29:41;;;;;;;24.40;12.90;;;;;;;3.60;100.00;99894.35;1481430;96;21145;-72
2021/12/06 11:32:21;;;;;;;30.17;13.75;;;;;;;3.64;100.00;99890.92;1503953;94;21593;-72
2021/12/06 11:34:54;;;;;;;37.00;19.40;;;;;;;3.68;100.00;99892.35;1487603;95;21209;-74
2021/12/06 11:37:32;;;;;;;;;;;;;;;3.70;100.00;99886.87;1485771;97;21143;-73
2021/12/06 11:40:04;;;;;;;22.77;11.73;;;;;;;3.71;100.00;99876.05;1471756;96;20156;-73